^^
Datos históricos de la estación: Murcia-Puente Tocinos
Diario Informe para Agosto 3, 2019 Unidades:  Métrico    Ingés   Ambas
Diario Semanal Mensual Anual
  Máxima: Mínima: Promedio:
Temperatura: 29.8 °C 22.8 °C 26.1 °C
Punto de rocio: 21.4 °C 19.2 °C 20.3 °C
Humedad: 87% 53.1% 72%
Velocidad viento: 16.4km/h 0km/h 6km/h
Racha viento: 33.8km/h - -
Viento- - ESE
Presión: 1019.4 hPa 1016.9 hPa -
Precipitación: 0.0 mm    
 
 
Tabla de datos para Agosto 3, 2019
Hora Temperatura Punto de rocio Presión Viento Velocidad viento Racha viento Humedad Intensidad lluvia(por hora) Nubes
00:04 23.9 °C 20.2 °C 1017.8 hPa ENE 4.7 km/h 8 km/h 80% 0.0 mm
00:09 24 °C 20.3 °C 1017.8 hPa Este 4.7 km/h 8 km/h 80% 0.0 mm
00:14 24.1 °C 20.4 °C 1017.8 hPa Este 4.7 km/h 8 km/h 80% 0.0 mm
00:19 24.1 °C 20.5 °C 1017.8 hPa Este 3.9 km/h 6.4 km/h 80% 0.0 mm
00:24 24.2 °C 20.5 °C 1017.8 hPa Este 2.2 km/h 3.2 km/h 79.8% 0.0 mm
00:29 24.2 °C 20.6 °C 1017.8 hPa Este 1.6 km/h   80% 0.0 mm
00:34 24.2 °C 20.6 °C 1017.8 hPa Calm     80% 0.0 mm
00:39 24.2 °C 20.6 °C 1017.8 hPa Calm     80% 0.0 mm
00:44 24.3 °C 20.6 °C 1017.8 hPa Calm   4.7 km/h 80% 0.0 mm
00:49 24.3 °C 20.5 °C 1018.0 hPa NO 0.7 km/h 7.4 km/h 79.3% 0.0 mm
00:54 24.2 °C 20.3 °C 1018.0 hPa NO 2.2 km/h 8 km/h 79% 0.0 mm
00:59 24.1 °C 20.3 °C 1018.0 hPa NO 2.2 km/h 5.6 km/h 79.3% 0.0 mm
01:04 24.1 °C 20.4 °C 1018.0 hPa NO 2.2 km/h 4.8 km/h 80% 0.0 mm
01:09 24.1 °C 20.4 °C 1018.0 hPa NO 1.5 km/h 3.2 km/h 80% 0.0 mm
01:14 24.1 °C 20.4 °C 1018.0 hPa Calm     80% 0.0 mm
01:19 24.1 °C 20.4 °C 1018.1 hPa Calm   3.9 km/h 80% 0.0 mm
01:24 24.1 °C 20.4 °C 1018.1 hPa Calm   7.4 km/h 80% 0.0 mm
01:29 24.1 °C 20.4 °C 1018.1 hPa NO 1 km/h 8 km/h 80% 0.0 mm
01:34 24.1 °C 20.5 °C 1018.2 hPa NO 3.2 km/h 8 km/h 80.3% 0.0 mm
01:39 24 °C 20.6 °C 1018.2 hPa ONO 3.4 km/h 8 km/h 81% 0.0 mm
01:44 24 °C 20.6 °C 1018.2 hPa ONO 3.9 km/h 8 km/h 81% 0.0 mm
01:49 24.1 °C 20.7 °C 1018.2 hPa NO 3.6 km/h 8 km/h 81.4% 0.0 mm
01:54 24.1 °C 20.8 °C 1018.2 hPa NO 2.9 km/h 7.6 km/h 82% 0.0 mm
01:59 24.1 °C 20.8 °C 1018.2 hPa NO 3 km/h 8 km/h 82% 0.0 mm
02:04 24.1 °C 20.8 °C 1018.2 hPa NO 3.2 km/h 8 km/h 82% 0.0 mm
02:09 24.1 °C 20.8 °C 1018.1 hPa ONO 3.2 km/h 5.8 km/h 82% 0.0 mm
02:14 24 °C 20.7 °C 1018.1 hPa NO 3.2 km/h 6.4 km/h 82% 0.0 mm
02:19 24 °C 20.7 °C 1018.1 hPa NO 2.9 km/h 6.4 km/h 82% 0.0 mm
02:24 24 °C 20.7 °C 1018.1 hPa NO 2.2 km/h   82% 0.0 mm
02:29 24.1 °C 20.8 °C 1018.1 hPa NO 2.2 km/h 7.4 km/h 82.1% 0.0 mm
02:34 24.1 °C 21 °C 1018.1 hPa NO 2.2 km/h 8 km/h 82.9% 0.0 mm
02:39 24.1 °C 20.9 °C 1018.1 hPa NO 2.2 km/h 5.6 km/h 82.4% 0.0 mm
02:44 24.1 °C 21 °C 1018.1 hPa NO 2.2 km/h 4.8 km/h 82.9% 0.0 mm
02:49 24.1 °C 21.1 °C 1018.1 hPa NO 2.5 km/h 5.8 km/h 83% 0.0 mm
02:54 24.1 °C 20.9 °C 1018.1 hPa NO 2.9 km/h 7.4 km/h 82.5% 0.0 mm
02:59 24.1 °C 20.8 °C 1018.1 hPa NO 3 km/h 8 km/h 82% 0.0 mm
03:04 24.1 °C 20.8 °C 1018.1 hPa NO 3.2 km/h 6.4 km/h 82% 0.0 mm
03:09 24.1 °C 20.8 °C 1018.1 hPa NO 2.2 km/h 3.2 km/h 82% 0.0 mm
03:14 24.1 °C 20.8 °C 1018.1 hPa Calm   1.6 km/h 82% 0.0 mm
03:19 24.2 °C 20.9 °C 1018.1 hPa Calm   2.3 km/h 82% 0.0 mm
03:24 24.2 °C 20.9 °C 1018.1 hPa Calm   5.6 km/h 82% 0.0 mm
03:29 24.2 °C 21 °C 1018.1 hPa Calm   4.8 km/h 82.2% 0.0 mm
03:34 24.1 °C 20.8 °C 1018.1 hPa Calm   3.2 km/h 82% 0.0 mm
03:39 24.1 °C 20.8 °C 1018.0 hPa Calm     82% 0.0 mm
03:44 24 °C 20.8 °C 1018.0 hPa Calm   5.8 km/h 82% 0.0 mm
03:49 24 °C 20.7 °C 1018.1 hPa SSE 0.7 km/h 6.4 km/h 82% 0.0 mm
03:54 23.9 °C 20.6 °C 1018.1 hPa SSE 2.2 km/h 6.4 km/h 82% 0.0 mm
03:59 23.9 °C 20.6 °C 1018.1 hPa SSE 2.2 km/h 4.8 km/h 82% 0.0 mm
04:04 23.9 °C 20.6 °C 1018.1 hPa SSE 2.2 km/h   82% 0.0 mm
04:09 23.9 °C 20.6 °C 1018.1 hPa SSE 1.6 km/h   82% 0.0 mm
04:14 23.9 °C 20.6 °C 1018.1 hPa Calm     82% 0.0 mm
04:19 23.9 °C 20.6 °C 1018.1 hPa Calm     82% 0.0 mm
04:24 23.9 °C 20.6 °C 1018.0 hPa Calm   7.4 km/h 82% 0.0 mm
04:29 23.8 °C 20.6 °C 1018.0 hPa SSE 1 km/h 8 km/h 82% 0.0 mm
04:34 23.8 °C 20.6 °C 1018.0 hPa SSE 3.2 km/h 6.4 km/h 82% 0.0 mm
04:39 23.8 °C 20.6 °C 1018.0 hPa SSE 3.2 km/h 6.4 km/h 82% 0.0 mm
04:44 23.8 °C 20.6 °C 1018.0 hPa SSE 3.2 km/h 7.4 km/h 82% 0.0 mm
04:49 23.7 °C 20.5 °C 1018.0 hPa SSE 3.4 km/h 8 km/h 82% 0.0 mm
04:54 23.7 °C 20.6 °C 1018.0 hPa SSE 3.9 km/h 8 km/h 82.7% 0.0 mm
04:59 23.7 °C 20.7 °C 1018.0 hPa SSE 3.9 km/h 8 km/h 83% 0.0 mm
05:04 23.7 °C 20.7 °C 1018.0 hPa SSE 3.9 km/h 6.4 km/h 83% 0.0 mm
05:09 23.7 °C 20.7 °C 1017.9 hPa SSE 2.6 km/h 3.2 km/h 83% 0.0 mm
05:14 23.7 °C 20.7 °C 1017.9 hPa Calm     83% 0.0 mm
05:19 23.7 °C 20.6 °C 1018.0 hPa Calm     83% 0.0 mm
05:24 23.6 °C 20.7 °C 1018.0 hPa Calm     83.6% 0.0 mm
05:29 23.5 °C 20.6 °C 1018.0 hPa Calm     84% 0.0 mm
05:34 23.4 °C 20.6 °C 1018.0 hPa Calm     84% 0.0 mm
05:39 23.4 °C 20.6 °C 1018.0 hPa Calm     84.3% 0.0 mm
05:44 23.4 °C 20.7 °C 1018.0 hPa Calm     85% 0.0 mm
05:49 23.4 °C 20.7 °C 1018.0 hPa Calm     85% 0.0 mm
05:54 23.3 °C 20.7 °C 1018.0 hPa Calm     85% 0.0 mm
05:59 23.3 °C 20.8 °C 1018.0 hPa Calm     85.8% 0.0 mm
06:04 23.3 °C 20.8 °C 1018.0 hPa Calm     86% 0.0 mm
06:09 23.3 °C 20.8 °C 1017.9 hPa Calm     86% 0.0 mm
06:14 23.2 °C 20.6 °C 1017.9 hPa Calm     85.5% 0.0 mm
06:19 23.2 °C 20.7 °C 1018.1 hPa Calm     86% 0.0 mm
06:24 23.2 °C 20.7 °C 1018.1 hPa Calm   2.3 km/h 86% 0.0 mm
06:29 23.1 °C 20.6 °C 1018.1 hPa Calm   1.9 km/h 86% 0.0 mm
06:34 23.1 °C 20.6 °C 1018.2 hPa Calm   8.4 km/h 85.7% 0.0 mm
06:39 23.1 °C 20.4 °C 1018.2 hPa SSE 1.2 km/h 8 km/h 85% 0.0 mm
06:44 23.1 °C 20.4 °C 1018.2 hPa SSE 3.9 km/h 8.4 km/h 85% 0.0 mm
06:49 23.1 °C 20.4 °C 1018.3 hPa Sur 4.2 km/h 8 km/h 85% 0.0 mm
06:54 23.1 °C 20.4 °C 1018.3 hPa Sur 5 km/h 8 km/h 85% 0.0 mm
06:59 23.1 °C 20.4 °C 1018.3 hPa SSE 4.6 km/h 6.4 km/h 85% 0.0 mm
07:04 23.1 °C 20.4 °C 1018.3 hPa SSE 3.9 km/h 6.4 km/h 85% 0.0 mm
07:09 23.1 °C 20.4 °C 1018.3 hPa Sur 3.4 km/h 5.8 km/h 85% 0.0 mm
07:14 23.1 °C 20.4 °C 1018.3 hPa SO 2.2 km/h 6.4 km/h 85% 0.0 mm
07:19 23.1 °C 20.6 °C 1018.3 hPa SO 2.2 km/h 4.8 km/h 85.9% 0.0 mm
07:24 23 °C 20.6 °C 1018.3 hPa SO 2.2 km/h   86% 0.0 mm
07:29 22.9 °C 20.5 °C 1018.3 hPa SO 1.5 km/h   86% 0.0 mm
07:34 22.9 °C 20.4 °C 1018.5 hPa Calm     86% 0.0 mm
07:39 22.9 °C 20.4 °C 1018.5 hPa Calm     86% 0.0 mm
07:44 22.9 °C 20.4 °C 1018.5 hPa Calm   8.4 km/h 86% 0.0 mm
07:49 22.8 °C 20.3 °C 1018.6 hPa Calm   8 km/h 86% 0.0 mm
07:54 22.8 °C 20.4 °C 1018.6 hPa Calm   8 km/h 86.5% 0.0 mm
07:59 22.8 °C 20.5 °C 1018.6 hPa Calm   2.3 km/h 87% 0.0 mm
08:04 22.8 °C 20.5 °C 1018.7 hPa Calm   3.9 km/h 87% 0.0 mm
08:09 22.8 °C 20.5 °C 1018.7 hPa OSO 0.7 km/h 4.7 km/h 87% 0.0 mm
08:14 22.8 °C 20.5 °C 1018.7 hPa OSO 2.2 km/h 4.8 km/h 86.9% 0.0 mm
08:19 22.9 °C 20.6 °C 1018.8 hPa OSO 1.6 km/h 3.2 km/h 87% 0.0 mm
08:24 23 °C 20.7 °C 1018.8 hPa Calm     87% 0.0 mm
08:29 23.2 °C 20.9 °C 1018.8 hPa Calm     86.9% 0.0 mm
08:34 23.3 °C 20.7 °C 1018.9 hPa Calm   7.4 km/h 85.5% 0.0 mm
08:39 23.4 °C 20.7 °C 1018.9 hPa Sur 0.9 km/h 8 km/h 85% 0.0 mm
08:44 23.4 °C 20.7 °C 1018.9 hPa Sur 2.9 km/h 7.4 km/h 84.5% 0.0 mm
08:49 23.6 °C 20.7 °C 1018.9 hPa SSO 3 km/h 8 km/h 84% 0.0 mm
08:54 23.7 °C 20.8 °C 1018.9 hPa OSO 3.2 km/h 8 km/h 84% 0.0 mm
08:59 23.8 °C 20.7 °C 1018.9 hPa ONO 3.1 km/h 6.4 km/h 83.1% 0.0 mm
09:04 23.8 °C 20.8 °C 1018.9 hPa ONO 2.9 km/h 6.4 km/h 83% 0.0 mm
09:09 23.9 °C 20.8 °C 1018.9 hPa OSO 2.9 km/h 8 km/h 82.8% 0.0 mm
09:14 23.9 °C 20.8 °C 1018.9 hPa Oeste 2.9 km/h 8 km/h 82.7% 0.0 mm
09:19 24 °C 21 °C 1019.0 hPa ONO 3.2 km/h 8 km/h 83% 0.0 mm
09:24 24.2 °C 20.9 °C 1019.0 hPa Oeste 3.9 km/h 8 km/h 82.2% 0.0 mm
09:29 24.3 °C 21 °C 1019.0 hPa OSO 3.5 km/h 8 km/h 82% 0.0 mm
09:34 24.5 °C 21 °C 1019.1 hPa Sur 2.9 km/h 8.4 km/h 80.8% 0.0 mm
09:39 24.7 °C 21 °C 1019.1 hPa SSE 3.5 km/h 8.4 km/h 80% 0.0 mm
09:44 24.8 °C 21 °C 1019.1 hPa SSE 4.7 km/h 8 km/h 79.4% 0.0 mm
09:49 25 °C 21 °C 1019.1 hPa ESE 4.2 km/h 9.5 km/h 78.6% 0.0 mm
09:54 25.2 °C 21.1 °C 1019.1 hPa Este 3.2 km/h 9.7 km/h 78% 0.0 mm
09:59 25.5 °C 21.2 °C 1019.1 hPa Este 3.1 km/h 6.9 km/h 77.3% 0.0 mm
10:04 25.8 °C 21.2 °C 1019.2 hPa North 2.9 km/h 8 km/h 76.2% 0.0 mm
10:09 25.8 °C 21.1 °C 1019.2 hPa NO 2.7 km/h 8 km/h 75% 0.0 mm
10:14 25.8 °C 21.1 °C 1019.2 hPa ONO 2.2 km/h 8 km/h 75% 0.0 mm
10:19 25.8 °C 21.1 °C 1019.2 hPa North 2.7 km/h 8.4 km/h 75.7% 0.0 mm
10:24 25.8 °C 21.1 °C 1019.2 hPa ENE 3.9 km/h 8.4 km/h 75.2% 0.0 mm
10:29 25.9 °C 21.1 °C 1019.2 hPa SE 4.2 km/h 8 km/h 75% 0.0 mm
10:34 26 °C 21.1 °C 1019.3 hPa SSE 5 km/h 9.3 km/h 74.7% 0.0 mm
10:39 26.1 °C 21.2 °C 1019.3 hPa SSE 5 km/h 9.7 km/h 74.5% 0.0 mm
10:44 26.1 °C 21.1 °C 1019.3 hPa SO 5 km/h 8 km/h 74.2% 0.0 mm
10:49 26.3 °C 21.3 °C 1019.3 hPa Sur 4.4 km/h 6.4 km/h 74% 0.0 mm
10:54 26.6 °C 21.4 °C 1019.3 hPa Este 3.2 km/h 11.1 km/h 73% 0.0 mm
10:59 26.8 °C 21 °C 1019.3 hPa NE 3.8 km/h 11.3 km/h 70.3% 0.0 mm
11:04 26.5 °C 20.4 °C 1019.3 hPa NE 5 km/h 14.8 km/h 69.3% 0.0 mm
11:09 26.1 °C 20.1 °C 1019.3 hPa NE 5.6 km/h 14.5 km/h 69.3% 0.0 mm
11:14 26 °C 19.7 °C 1019.3 hPa NE 6.9 km/h 11.3 km/h 68.6% 0.0 mm
11:19 25.9 °C 19.8 °C 1019.3 hPa NNO 6.2 km/h 10.3 km/h 69% 0.0 mm
11:24 26 °C 19.9 °C 1019.3 hPa NNE 4.7 km/h 11.9 km/h 69.1% 0.0 mm
11:29 26.2 °C 20.1 °C 1019.3 hPa NE 5 km/h 11.3 km/h 69.1% 0.0 mm
11:34 26.6 °C 19.9 °C 1019.3 hPa ENE 5.8 km/h 13 km/h 67.1% 0.0 mm
11:39 26.7 °C 20 °C 1019.3 hPa ENE 6.4 km/h 14.8 km/h 66.8% 0.0 mm
11:44 26.9 °C 20.2 °C 1019.3 hPa Este 7.6 km/h 14.5 km/h 66.8% 0.0 mm
11:49 26.9 °C 20.3 °C 1019.3 hPa NNE 7.2 km/h 11.3 km/h 67% 0.0 mm
11:54 27.1 °C 19.9 °C 1019.3 hPa ENE 6.5 km/h 11.3 km/h 64.9% 0.0 mm
11:59 27.3 °C 19.3 °C 1019.3 hPa ESE 6.5 km/h 14.8 km/h 61.7% 0.0 mm
12:04 27.5 °C 19.2 °C 1019.4 hPa NE 6.5 km/h 16.4 km/h 60.4% 0.0 mm
12:09 27.7 °C 19.5 °C 1019.4 hPa Este 6.8 km/h 16.1 km/h 60.9% 0.0 mm
12:14 27.9 °C 19.4 °C 1019.4 hPa Este 7.6 km/h 16.7 km/h 60.1% 0.0 mm
12:19 27.8 °C 19.7 °C 1019.4 hPa ESE 7.6 km/h 16.1 km/h 61.2% 0.0 mm
12:24 27.8 °C 19.6 °C 1019.3 hPa NE 7.6 km/h 19.8 km/h 61% 0.0 mm
12:29 27.7 °C 19.6 °C 1019.3 hPa NE 7.9 km/h 19.3 km/h 61.4% 0.0 mm
12:34 27.8 °C 19.6 °C 1019.3 hPa NNE 8.7 km/h 16.1 km/h 61.1% 0.0 mm
12:39 27.7 °C 19.9 °C 1019.2 hPa NNE 8.6 km/h 18.5 km/h 62.6% 0.0 mm
12:44 27.7 °C 19.9 °C 1019.2 hPa NNE 8.4 km/h 19.3 km/h 62.6% 0.0 mm
12:49 27.8 °C 19.9 °C 1019.2 hPa NE 7.9 km/h 14.8 km/h 62.3% 0.0 mm
12:54 27.9 °C 19.7 °C 1019.0 hPa ENE 6.9 km/h 15.6 km/h 61% 0.0 mm
12:59 28.2 °C 19.7 °C 1019.0 hPa Este 7.2 km/h 18.5 km/h 60.1% 0.0 mm
13:04 28.4 °C 19.7 °C 1019.0 hPa NNE 7.6 km/h 19.3 km/h 59.4% 0.0 mm
13:09 28.3 °C 19.7 °C 1019.0 hPa NE 7.9 km/h 16.7 km/h 59.5% 0.0 mm
13:14 28.5 °C 19.8 °C 1019.0 hPa NE 8.7 km/h 20.9 km/h 59.4% 0.0 mm
13:19 28.7 °C 19.6 °C 1019.0 hPa ENE 8.7 km/h 20.9 km/h 57.9% 0.0 mm
13:24 28.7 °C 19.3 °C 1018.7 hPa ENE 8.7 km/h 20.1 km/h 57% 0.0 mm
13:29 28.8 °C 19.6 °C 1018.7 hPa NE 9.2 km/h 22.2 km/h 57.8% 0.0 mm
13:34 28.8 °C 19.7 °C 1018.7 hPa NE 10.3 km/h 22.5 km/h 58.1% 0.0 mm
13:39 28.8 °C 20 °C 1018.6 hPa NE 10.6 km/h 22.2 km/h 59% 0.0 mm
13:44 28.9 °C 20.2 °C 1018.6 hPa NE 11.1 km/h 22.5 km/h 59.1% 0.0 mm
13:49 29.1 °C 19.7 °C 1018.6 hPa Este 10.2 km/h 14.5 km/h 56.9% 0.0 mm
13:54 29.2 °C 19.7 °C 1018.6 hPa ENE 8.4 km/h 20.9 km/h 56.9% 0.0 mm
13:59 29.1 °C 19.5 °C 1018.6 hPa NE 8.9 km/h 22.2 km/h 56.3% 0.0 mm
14:04 29.2 °C 19.5 °C 1018.6 hPa NE 10 km/h 24.5 km/h 55.8% 0.0 mm
14:09 29.2 °C 19.8 °C 1018.4 hPa NE 10.1 km/h 24.5 km/h 57.1% 0.0 mm
14:14 29 °C 19.6 °C 1018.4 hPa NNE 10.3 km/h 24.1 km/h 57% 0.0 mm
14:19 29.2 °C 19.8 °C 1018.4 hPa NE 10.2 km/h 19.3 km/h 56.9% 0.0 mm
14:24 29.3 °C 19.5 °C 1018.3 hPa NE 10 km/h 22.2 km/h 55.6% 0.0 mm
14:29 29.2 °C 19.7 °C 1018.3 hPa ENE 10.6 km/h 22.5 km/h 56.5% 0.0 mm
14:34 29.5 °C 19.8 °C 1018.3 hPa NE 11.9 km/h 18.5 km/h 56.2% 0.0 mm
14:39 29.7 °C 19.7 °C 1018.3 hPa ENE 11.3 km/h 19.3 km/h 55.2% 0.0 mm
14:44 29.7 °C 19.7 °C 1018.3 hPa Este 10 km/h 19.3 km/h 55% 0.0 mm
14:49 29.6 °C 19.6 °C 1018.3 hPa NE 10 km/h 24.1 km/h 55% 0.0 mm
14:54 29.7 °C 19.5 °C 1018.2 hPa NE 10 km/h 24.1 km/h 54.4% 0.0 mm
14:59 29.6 °C 19.4 °C 1018.2 hPa NE 10.4 km/h 25.9 km/h 54.4% 0.0 mm
15:04 29.6 °C 19.4 °C 1018.2 hPa NE 11.1 km/h 25.7 km/h 54.4% 0.0 mm
15:09 29.6 °C 19.5 °C 1018.0 hPa NE 11.4 km/h 22.5 km/h 54.8% 0.0 mm
15:14 29.6 °C 19.4 °C 1018.0 hPa NE 11.9 km/h 24.1 km/h 54.4% 0.0 mm
15:19 29.7 °C 19.5 °C 1018.0 hPa ENE 12.5 km/h 24.1 km/h 54.4% 0.0 mm
15:24 29.8 °C 19.4 °C 1017.8 hPa NE 13.7 km/h 31.5 km/h 53.8% 0.0 mm
15:29 29.7 °C 19.3 °C 1017.8 hPa NE 14.3 km/h 32.2 km/h 53.7% 0.0 mm
15:34 29.6 °C 19.4 °C 1017.8 hPa NE 15.6 km/h 25.9 km/h 54.2% 0.0 mm
15:39 29.7 °C 19.5 °C 1017.7 hPa NE 14.6 km/h 25.7 km/h 54.2% 0.0 mm
15:44 29.8 °C 19.3 °C 1017.7 hPa ENE 12.2 km/h 24.1 km/h 53.4% 0.0 mm
15:49 29.8 °C 19.2 °C 1017.7 hPa Este 11.5 km/h 20.9 km/h 53.1% 0.0 mm
15:54 29.8 °C 19.4 °C 1017.4 hPa ENE 10 km/h 27.8 km/h 53.5% 0.0 mm
15:59 29.8 °C 19.5 °C 1017.4 hPa NE 11.1 km/h 27.4 km/h 54% 0.0 mm
16:04 29.8 °C 19.5 °C 1017.4 hPa Este 13 km/h 25.1 km/h 54.1% 0.0 mm
16:09 29.7 °C 19.5 °C 1017.3 hPa ENE 13 km/h 25.9 km/h 54.2% 0.0 mm
16:14 29.7 °C 19.5 °C 1017.3 hPa ENE 13 km/h 28.2 km/h 54.6% 0.0 mm
16:19 29.6 °C 19.6 °C 1017.3 hPa NE 12.4 km/h 27.8 km/h 55% 0.0 mm
16:24 29.7 °C 19.7 °C 1017.2 hPa NE 11.1 km/h 24.1 km/h 55.1% 0.0 mm
16:29 29.6 °C 19.9 °C 1017.2 hPa ENE 11.7 km/h 24.5 km/h 56% 0.0 mm
16:34 29.8 °C 19.8 °C 1017.2 hPa NE 13 km/h 24.1 km/h 55.2% 0.0 mm
16:39 29.7 °C 19.6 °C 1017.2 hPa ENE 13.2 km/h 33.3 km/h 54.8% 0.0 mm
16:44 29.7 °C 19.5 °C 1017.2 hPa ENE 13.7 km/h 33.8 km/h 54.5% 0.0 mm
16:49 29.7 °C 19.4 °C 1017.2 hPa NE 14 km/h 30.6 km/h 54.1% 0.0 mm
16:54 29.6 °C 19.3 °C 1017.1 hPa NE 14.8 km/h 24.1 km/h 54.2% 0.0 mm
16:59 29.6 °C 19.3 °C 1017.1 hPa NE 15.2 km/h 30.6 km/h 54% 0.0 mm
17:04 29.6 °C 19.3 °C 1017.1 hPa ENE 16.1 km/h 30.6 km/h 54.2% 0.0 mm
17:09 29.6 °C 19.6 °C 1017.0 hPa NE 15.1 km/h 25.9 km/h 54.7% 0.0 mm
17:14 29.6 °C 19.5 °C 1017.0 hPa NE 13 km/h 31.7 km/h 54.5% 0.0 mm
17:19 29.5 °C 19.4 °C 1017.0 hPa NE 14.1 km/h 32.2 km/h 54.9% 0.0 mm
17:24 29.5 °C 19.5 °C 1017.0 hPa NE 16.4 km/h 27.8 km/h 55% 0.0 mm
17:29 29.4 °C 19.4 °C 1017.0 hPa ENE 16.1 km/h 27.4 km/h 55% 0.0 mm
17:34 29.5 °C 19.5 °C 1017.0 hPa NE 15.6 km/h 24.1 km/h 55% 0.0 mm
17:39 29.5 °C 19.5 °C 1016.9 hPa NE 15.1 km/h 24.1 km/h 55% 0.0 mm
17:44 29.7 °C 19.6 °C 1016.9 hPa ENE 14 km/h 24.1 km/h 54.7% 0.0 mm
17:49 29.6 °C 19.6 °C 1017.0 hPa Este 13.3 km/h 20.9 km/h 55% 0.0 mm
17:54 29.7 °C 19.7 °C 1017.0 hPa ENE 11.9 km/h 25.1 km/h 55% 0.0 mm
17:59 29.7 °C 19.7 °C 1017.0 hPa Este 11 km/h 25.9 km/h 55.2% 0.0 mm
18:04 29.7 °C 19.7 °C 1017.0 hPa Este 9.5 km/h 25.7 km/h 55.2% 0.0 mm
18:09 29.6 °C 19.9 °C 1017.0 hPa ENE 10 km/h 22.5 km/h 55.8% 0.0 mm
18:14 29.6 °C 19.8 °C 1017.0 hPa Este 11.1 km/h 19 km/h 55.6% 0.0 mm
18:19 29.5 °C 19.8 °C 1017.0 hPa Este 10.8 km/h 19.3 km/h 56% 0.0 mm
18:24 29.5 °C 19.8 °C 1017.0 hPa ENE 10.3 km/h 19.3 km/h 56.1% 0.0 mm
18:29 29.5 °C 19.6 °C 1017.0 hPa Este 9.8 km/h 19.8 km/h 55.4% 0.0 mm
18:34 29.3 °C 19.3 °C 1017.1 hPa Este 8.7 km/h 20.9 km/h 55% 0.0 mm
18:39 29.2 °C 19.4 °C 1017.1 hPa ESE 9.7 km/h 22.5 km/h 55.7% 0.0 mm
18:44 29 °C 19.3 °C 1017.1 hPa ESE 11.9 km/h 25.9 km/h 56% 0.0 mm
18:49 28.9 °C 19.2 °C 1017.1 hPa ESE 13.1 km/h 25.9 km/h 56% 0.0 mm
18:54 29 °C 19.3 °C 1017.0 hPa Este 15.6 km/h 20.9 km/h 56% 0.0 mm
18:59 29 °C 19.3 °C 1017.0 hPa Este 14 km/h 21.7 km/h 56% 0.0 mm
19:04 28.9 °C 19.4 °C 1017.0 hPa ESE 11.1 km/h 20.9 km/h 56.8% 0.0 mm
19:09 28.8 °C 19.5 °C 1017.0 hPa ESE 11.4 km/h 20.4 km/h 57% 0.0 mm
19:14 28.7 °C 19.3 °C 1017.0 hPa ESE 11.9 km/h 20.9 km/h 57.1% 0.0 mm
19:19 28.6 °C 19.6 °C 1017.1 hPa Este 11.6 km/h 20.9 km/h 58.4% 0.0 mm
19:24 28.6 °C 19.8 °C 1017.1 hPa ENE 11.1 km/h 16.1 km/h 59.2% 0.0 mm
19:29 28.4 °C 19.8 °C 1017.1 hPa Este 10.6 km/h 17.2 km/h 59.7% 0.0 mm
19:34 28.3 °C 19.8 °C 1017.2 hPa Este 9.5 km/h 18.5 km/h 60% 0.0 mm
19:39 28.2 °C 19.8 °C 1017.2 hPa ENE 9.5 km/h 19.3 km/h 60.3% 0.0 mm
19:44 28.2 °C 19.9 °C 1017.2 hPa NE 9.5 km/h 16.1 km/h 61% 0.0 mm
19:49 28.1 °C 20.1 °C 1017.2 hPa NE 9.1 km/h 16.7 km/h 61.9% 0.0 mm
19:54 28 °C 20.1 °C 1017.2 hPa Este 8.4 km/h 16.1 km/h 62% 0.0 mm
19:59 27.9 °C 20 °C 1017.2 hPa Este 8.1 km/h 14.8 km/h 62% 0.0 mm
20:04 27.8 °C 19.9 °C 1017.5 hPa Este 7.6 km/h 14.8 km/h 62% 0.0 mm
20:09 27.7 °C 19.8 °C 1017.5 hPa ENE 7.9 km/h 20.9 km/h 62.3% 0.0 mm
20:14 27.5 °C 19.9 °C 1017.5 hPa ENE 8.7 km/h 20.9 km/h 63% 0.0 mm
20:19 27.4 °C 19.9 °C 1017.5 hPa Este 8.4 km/h 15.6 km/h 63.8% 0.0 mm
20:24 27.3 °C 19.9 °C 1017.5 hPa ENE 7.6 km/h 16.1 km/h 64.1% 0.0 mm
20:29 27.3 °C 20.1 °C 1017.5 hPa Este 7 km/h 10 km/h 64.7% 0.0 mm
20:34 27.2 °C 20.1 °C 1017.5 hPa Este 5.8 km/h 11.1 km/h 65% 0.0 mm
20:39 27.2 °C 20 °C 1017.5 hPa ENE 5.8 km/h 12.2 km/h 65% 0.0 mm
20:44 27 °C 20.1 °C 1017.5 hPa ENE 5.8 km/h 13 km/h 66% 0.0 mm
20:49 26.9 °C 20 °C 1017.5 hPa NE 6.1 km/h 12.9 km/h 66.2% 0.0 mm
20:54 26.8 °C 20.2 °C 1017.5 hPa NE 6.9 km/h 13 km/h 67% 0.0 mm
20:59 26.7 °C 20.2 °C 1017.5 hPa NE 7.2 km/h 13.7 km/h 67.7% 0.0 mm
21:04 26.4 °C 20.2 °C 1017.6 hPa NE 7.6 km/h 14.5 km/h 68.5% 0.0 mm
21:09 26.3 °C 20.3 °C 1017.6 hPa ENE 7.6 km/h 13.7 km/h 69.4% 0.0 mm
21:14 26.2 °C 20.4 °C 1017.6 hPa NE 7.6 km/h 16.1 km/h 70.3% 0.0 mm
21:19 26.1 °C 20.4 °C 1017.8 hPa NE 8.2 km/h 16.7 km/h 71% 0.0 mm
21:24 25.9 °C 20.4 °C 1017.8 hPa NE 9.5 km/h 16.1 km/h 71.4% 0.0 mm
21:29 25.9 °C 20.4 °C 1017.8 hPa NE 9.5 km/h 16.1 km/h 72% 0.0 mm
21:34 25.8 °C 20.5 °C 1017.9 hPa NE 9.5 km/h 16.1 km/h 72.3% 0.0 mm
21:39 25.7 °C 20.5 °C 1017.9 hPa NE 9.5 km/h 14.8 km/h 73% 0.0 mm
21:44 25.6 °C 20.4 °C 1017.9 hPa NE 9.5 km/h 14.8 km/h 73% 0.0 mm
21:49 25.5 °C 20.5 °C 1018.1 hPa NE 9.1 km/h 14.5 km/h 73.8% 0.0 mm
21:54 25.4 °C 20.5 °C 1018.1 hPa NE 8.4 km/h 13 km/h 74.2% 0.0 mm
21:59 25.3 °C 20.6 °C 1018.1 hPa NE 8.1 km/h 13 km/h 75% 0.0 mm
22:04 25.3 °C 20.6 °C 1018.2 hPa NE 7.6 km/h 13.7 km/h 75% 0.0 mm
22:09 25.3 °C 20.6 °C 1018.2 hPa NE 7.8 km/h 17.2 km/h 75.3% 0.0 mm
22:14 25.2 °C 20.7 °C 1018.2 hPa NE 8.4 km/h 17.7 km/h 76% 0.0 mm
22:19 25.1 °C 20.6 °C 1018.3 hPa ENE 8.5 km/h 16.1 km/h 76% 0.0 mm
22:24 25.1 °C 20.7 °C 1018.3 hPa NE 8.7 km/h 12.9 km/h 76.4% 0.0 mm
22:29 25.1 °C 20.8 °C 1018.3 hPa NE 8 km/h 11.3 km/h 77% 0.0 mm
22:34 25 °C 20.7 °C 1018.6 hPa NE 6.5 km/h 13 km/h 77% 0.0 mm
22:39 25 °C 20.7 °C 1018.6 hPa NE 6.6 km/h 12.9 km/h 77% 0.0 mm
22:44 24.9 °C 20.8 °C 1018.6 hPa NE 6.9 km/h 13 km/h 77.7% 0.0 mm
22:49 24.9 °C 20.8 °C 1018.6 hPa ENE 6.8 km/h 12.9 km/h 78% 0.0 mm
22:54 24.9 °C 20.7 °C 1018.5 hPa ENE 6.5 km/h 9.7 km/h 77.7% 0.0 mm
22:59 24.9 °C 20.7 °C 1018.5 hPa Este 5.9 km/h 9.7 km/h 77.5% 0.0 mm
23:04 24.9 °C 20.8 °C 1018.6 hPa NE 5 km/h 9.7 km/h 78% 0.0 mm
23:09 24.8 °C 20.7 °C 1018.6 hPa ENE 5.2 km/h 11.1 km/h 78% 0.0 mm
23:14 24.8 °C 20.8 °C 1018.6 hPa NE 5.8 km/h 11.3 km/h 78.3% 0.0 mm
23:19 24.8 °C 20.9 °C 1018.6 hPa ENE 5.5 km/h 11.9 km/h 79% 0.0 mm
23:24 24.6 °C 20.8 °C 1018.6 hPa NE 5 km/h 11.3 km/h 79.3% 0.0 mm
23:29 24.5 °C 20.9 °C 1018.6 hPa NE 5.6 km/h 11.3 km/h 80% 0.0 mm
23:34 24.5 °C 20.8 °C 1018.7 hPa ENE 6.9 km/h 11.3 km/h 80% 0.0 mm
23:39 24.6 °C 20.9 °C 1018.7 hPa ENE 6.6 km/h 11.3 km/h 80% 0.0 mm
23:44 24.6 °C 20.9 °C 1018.7 hPa ENE 5.8 km/h 9.7 km/h 80% 0.0 mm
23:49 24.6 °C 20.9 °C 1018.7 hPa Este 4.8 km/h 5.6 km/h 80% 0.0 mm
23:54 24.6 °C 20.9 °C 1018.7 hPa ENE 2.9 km/h 7.4 km/h 80% 0.0 mm
23:59 24.6 °C 20.9 °C 1018.7 hPa NE 3.2 km/h 8 km/h 80% 0.0 mm
Murcia-Puente Tocinos, España
Compliments of Weather Underground - 3 mb

La estación de MeteoMurcia.com, publica sus datos en los siguientes proyectos:

Weather Underground PWS IMURCIAP2 Meteoclimatic www.awekas.at

W3Counter
Web Analytics